QFA450 YMML-YSSY
Flight info
| Callsign | QFA450 |
|---|---|
| Flight time | 1h 14m |
| Altitude | 35000 |
| Route | DOSEL Y59 RIVET |
| Aircraft | A21N/M-SDE2E3FGHIRWXY/LB1 |
Departure
| Time | 2026-05-06 16:29 |
|---|---|
| Airport | Melbourne Airport (YMML) |
Arrival
| Time | 2026-05-06 17:43 |
|---|---|
| Airport | Sydney Kingsford Smith International Airport (YSSY) |
| Time | Latitude | Longitude | Altitude | Speed | Heading |
|---|---|---|---|---|---|
| 2026-05-06 15:55 | -37.66616 | 144.84969 | 409 ft | 0 kts | 222° |
| 2026-05-06 16:17 | -37.66613 | 144.84972 | 407 ft | 3 kts | 222° |
| 2026-05-06 16:17 | -37.66594 | 144.84996 | 409 ft | 4 kts | 225° |
| 2026-05-06 16:17 | -37.66576 | 144.85019 | 403 ft | 4 kts | 225° |
| 2026-05-06 16:18 | -37.66555 | 144.85042 | 406 ft | 4 kts | 213° |
| 2026-05-06 16:18 | -37.66533 | 144.85052 | 411 ft | 2 kts | 173° |
| 2026-05-06 16:18 | -37.66513 | 144.85051 | 409 ft | 4 kts | 193° |
| 2026-05-06 16:18 | -37.66495 | 144.85064 | 407 ft | 4 kts | 249° |
| 2026-05-06 16:19 | -37.66493 | 144.85096 | 408 ft | 4 kts | 274° |
| 2026-05-06 16:19 | -37.66494 | 144.85128 | 409 ft | 4 kts | 272° |
| 2026-05-06 16:19 | -37.66495 | 144.85162 | 410 ft | 4 kts | 274° |
| 2026-05-06 16:19 | -37.66496 | 144.85181 | 410 ft | 1 kts | 275° |
| 2026-05-06 16:22 | -37.66495 | 144.85169 | 410 ft | 4 kts | 275° |
| 2026-05-06 16:23 | -37.66492 | 144.85135 | 411 ft | 1 kts | 279° |
| 2026-05-06 16:23 | -37.66484 | 144.85109 | 406 ft | 6 kts | 291° |
| 2026-05-06 16:23 | -37.66461 | 144.85040 | 412 ft | 11 kts | 298° |
| 2026-05-06 16:23 | -37.66429 | 144.84989 | 415 ft | 8 kts | 319° |
| 2026-05-06 16:24 | -37.66383 | 144.84945 | 413 ft | 5 kts | 323° |
| 2026-05-06 16:24 | -37.66362 | 144.84925 | 412 ft | 0 kts | 322° |
| 2026-05-06 16:26 | -37.66347 | 144.84910 | 415 ft | 7 kts | 322° |
| 2026-05-06 16:26 | -37.66276 | 144.84840 | 413 ft | 17 kts | 322° |
| 2026-05-06 16:26 | -37.66223 | 144.84740 | 413 ft | 6 kts | 277° |
| 2026-05-06 16:26 | -37.66222 | 144.84726 | 418 ft | 0 kts | 275° |
| 2026-05-06 16:27 | -37.66222 | 144.84718 | 418 ft | 6 kts | 275° |
| 2026-05-06 16:27 | -37.66223 | 144.84633 | 418 ft | 3 kts | 274° |
| 2026-05-06 16:28 | -37.66223 | 144.84632 | 418 ft | 1 kts | 274° |
| 2026-05-06 16:28 | -37.66207 | 144.84405 | 416 ft | 62 kts | 274° |
| 2026-05-06 16:28 | -37.66160 | 144.83560 | 423 ft | 128 kts | 273° |
| 2026-05-06 16:28 | -37.66085 | 144.82319 | 800 ft | 150 kts | 270° |
| 2026-05-06 16:29 | -37.66021 | 144.80982 | 1515 ft | 153 kts | 270° |
| 2026-05-06 16:29 | -37.65961 | 144.79688 | 2451 ft | 143 kts | 268° |
| 2026-05-06 16:29 | -37.65926 | 144.78418 | 3001 ft | 147 kts | 267° |
| 2026-05-06 16:29 | -37.65855 | 144.77094 | 3598 ft | 154 kts | 270° |
| 2026-05-06 16:30 | -37.65711 | 144.75726 | 4118 ft | 165 kts | 271° |
| 2026-05-06 16:30 | -37.65584 | 144.74745 | 4486 ft | 171 kts | 271° |
| 2026-05-06 16:30 | -37.65288 | 144.72640 | 5026 ft | 197 kts | 270° |
| 2026-05-06 16:30 | -37.65143 | 144.70790 | 5214 ft | 227 kts | 266° |
| 2026-05-06 16:31 | -37.65076 | 144.68734 | 5810 ft | 241 kts | 269° |
| 2026-05-06 16:31 | -37.64596 | 144.66671 | 6694 ft | 257 kts | 292° |
| 2026-05-06 16:31 | -37.63308 | 144.64998 | 7430 ft | 281 kts | 322° |
| 2026-05-06 16:31 | -37.61410 | 144.64124 | 8192 ft | 296 kts | 338° |
| 2026-05-06 16:32 | -37.59451 | 144.63476 | 9260 ft | 289 kts | 337° |
| 2026-05-06 16:32 | -37.57506 | 144.62788 | 10075 ft | 295 kts | 341° |
| 2026-05-06 16:32 | -37.55382 | 144.62613 | 10527 ft | 321 kts | 3° |
| 2026-05-06 16:32 | -37.53196 | 144.63534 | 10829 ft | 347 kts | 28° |
| 2026-05-06 16:33 | -37.51295 | 144.65543 | 11118 ft | 367 kts | 50° |
| 2026-05-06 16:33 | -37.49775 | 144.68185 | 11577 ft | 377 kts | 56° |
| 2026-05-06 16:33 | -37.48283 | 144.70924 | 12274 ft | 380 kts | 55° |
| 2026-05-06 16:34 | -37.45569 | 144.76647 | 13793 ft | 386 kts | 60° |
| 2026-05-06 16:34 | -37.44238 | 144.79608 | 14467 ft | 389 kts | 60° |
| 2026-05-06 16:34 | -37.42885 | 144.82585 | 15075 ft | 394 kts | 60° |
| 2026-05-06 16:34 | -37.41506 | 144.85590 | 15670 ft | 399 kts | 59° |
| 2026-05-06 16:35 | -37.40114 | 144.88632 | 16266 ft | 403 kts | 59° |
| 2026-05-06 16:35 | -37.38703 | 144.91710 | 16875 ft | 408 kts | 59° |
| 2026-05-06 16:35 | -37.37271 | 144.94820 | 17437 ft | 413 kts | 58° |
| 2026-05-06 16:35 | -37.35816 | 144.97983 | 17852 ft | 422 kts | 58° |
| 2026-05-06 16:36 | -37.34346 | 145.01165 | 18428 ft | 428 kts | 57° |
| 2026-05-06 16:36 | -37.32851 | 145.04394 | 19027 ft | 428 kts | 56° |
| 2026-05-06 16:36 | -37.31330 | 145.07681 | 19565 ft | 432 kts | 56° |
| 2026-05-06 16:36 | -37.29807 | 145.10959 | 20049 ft | 436 kts | 56° |
| 2026-05-06 16:37 | -37.28290 | 145.14223 | 20498 ft | 441 kts | 56° |
| 2026-05-06 16:37 | -37.26737 | 145.17567 | 20964 ft | 445 kts | 55° |
| 2026-05-06 16:37 | -37.25171 | 145.20943 | 21423 ft | 449 kts | 55° |
| 2026-05-06 16:37 | -37.23586 | 145.24358 | 21872 ft | 453 kts | 55° |
| 2026-05-06 16:38 | -37.21991 | 145.27793 | 22328 ft | 458 kts | 54° |
| 2026-05-06 16:38 | -37.20378 | 145.31255 | 22798 ft | 461 kts | 53° |
| 2026-05-06 16:38 | -37.18756 | 145.34738 | 23252 ft | 465 kts | 53° |
| 2026-05-06 16:38 | -37.17115 | 145.38251 | 23666 ft | 468 kts | 53° |
| 2026-05-06 16:39 | -37.15317 | 145.41651 | 24015 ft | 467 kts | 47° |
| 2026-05-06 16:39 | -37.13417 | 145.44975 | 24307 ft | 470 kts | 46° |
| 2026-05-06 16:39 | -37.11516 | 145.48275 | 24653 ft | 473 kts | 46° |
| 2026-05-06 16:39 | -37.09584 | 145.51630 | 25006 ft | 476 kts | 46° |
| 2026-05-06 16:40 | -37.07648 | 145.55000 | 25448 ft | 476 kts | 46° |
| 2026-05-06 16:40 | -37.05713 | 145.58366 | 25895 ft | 475 kts | 46° |
| 2026-05-06 16:40 | -37.03776 | 145.61733 | 26277 ft | 477 kts | 46° |
| 2026-05-06 16:40 | -37.01827 | 145.65113 | 26563 ft | 479 kts | 46° |
| 2026-05-06 16:41 | -36.99862 | 145.68520 | 26851 ft | 483 kts | 46° |
| 2026-05-06 16:41 | -36.97887 | 145.71939 | 27153 ft | 486 kts | 46° |
| 2026-05-06 16:41 | -36.95928 | 145.75327 | 27473 ft | 489 kts | 46° |
| 2026-05-06 16:41 | -36.93903 | 145.78826 | 27808 ft | 491 kts | 46° |
| 2026-05-06 16:42 | -36.91931 | 145.82234 | 28267 ft | 490 kts | 46° |
| 2026-05-06 16:42 | -36.89934 | 145.85679 | 28669 ft | 490 kts | 46° |
| 2026-05-06 16:42 | -36.87924 | 145.89140 | 28926 ft | 492 kts | 46° |
| 2026-05-06 16:42 | -36.85902 | 145.92616 | 29191 ft | 496 kts | 46° |
| 2026-05-06 16:43 | -36.83872 | 145.96107 | 29472 ft | 499 kts | 46° |
| 2026-05-06 16:43 | -36.81828 | 145.99619 | 29762 ft | 500 kts | 46° |
| 2026-05-06 16:43 | -36.79785 | 146.03132 | 30166 ft | 499 kts | 46° |
| 2026-05-06 16:43 | -36.77747 | 146.06630 | 30488 ft | 498 kts | 45° |
| 2026-05-06 16:44 | -36.75713 | 146.10111 | 30794 ft | 495 kts | 45° |
| 2026-05-06 16:44 | -36.73679 | 146.13588 | 31037 ft | 496 kts | 44° |
| 2026-05-06 16:44 | -36.71638 | 146.17071 | 31289 ft | 497 kts | 44° |
| 2026-05-06 16:44 | -36.69601 | 146.20551 | 31576 ft | 496 kts | 44° |
| 2026-05-06 16:45 | -36.67570 | 146.24015 | 31864 ft | 495 kts | 44° |
| 2026-05-06 16:45 | -36.65543 | 146.27476 | 32173 ft | 494 kts | 44° |
| 2026-05-06 16:45 | -36.63512 | 146.30937 | 32440 ft | 493 kts | 44° |
| 2026-05-06 16:45 | -36.61489 | 146.34375 | 32696 ft | 491 kts | 43° |
| 2026-05-06 16:46 | -36.59493 | 146.37764 | 32993 ft | 489 kts | 43° |
| 2026-05-06 16:46 | -36.57483 | 146.41176 | 33268 ft | 488 kts | 43° |
| 2026-05-06 16:46 | -36.55480 | 146.44573 | 33519 ft | 487 kts | 43° |
| 2026-05-06 16:46 | -36.53484 | 146.47976 | 33776 ft | 487 kts | 43° |
| 2026-05-06 16:47 | -36.51493 | 146.51371 | 34018 ft | 486 kts | 43° |
| 2026-05-06 16:47 | -36.49497 | 146.54758 | 34226 ft | 485 kts | 43° |
| 2026-05-06 16:47 | -36.47500 | 146.58136 | 34293 ft | 486 kts | 43° |
| 2026-05-06 16:47 | -36.45493 | 146.61519 | 34413 ft | 487 kts | 43° |
| 2026-05-06 16:48 | -36.43480 | 146.64916 | 34541 ft | 487 kts | 43° |
| 2026-05-06 16:48 | -36.41465 | 146.68300 | 34674 ft | 488 kts | 43° |
| 2026-05-06 16:48 | -36.39442 | 146.71695 | 34821 ft | 488 kts | 44° |
| 2026-05-06 16:49 | -36.36082 | 146.77345 | 35035 ft | 489 kts | 44° |
| 2026-05-06 16:49 | -36.33396 | 146.81837 | 35143 ft | 490 kts | 44° |
| 2026-05-06 16:49 | -36.32017 | 146.84132 | 35163 ft | 491 kts | 44° |
| 2026-05-06 16:50 | -36.27270 | 146.92050 | 35134 ft | 492 kts | 44° |
| 2026-05-06 16:50 | -36.23851 | 146.97762 | 35117 ft | 492 kts | 44° |
| 2026-05-06 16:51 | -36.19752 | 147.04583 | 35092 ft | 494 kts | 44° |
| 2026-05-06 16:51 | -36.15669 | 147.11374 | 35098 ft | 494 kts | 44° |
| 2026-05-06 16:52 | -36.11591 | 147.18178 | 35109 ft | 492 kts | 44° |
| 2026-05-06 16:52 | -36.07506 | 147.24967 | 35066 ft | 491 kts | 43° |
| 2026-05-06 16:53 | -36.03419 | 147.31721 | 35086 ft | 490 kts | 43° |
| 2026-05-06 16:53 | -35.99328 | 147.38462 | 35081 ft | 490 kts | 43° |
| 2026-05-06 16:54 | -35.95288 | 147.45127 | 35088 ft | 487 kts | 43° |
| 2026-05-06 16:54 | -35.91215 | 147.51812 | 35085 ft | 486 kts | 43° |
| 2026-05-06 16:55 | -35.87146 | 147.58491 | 35089 ft | 486 kts | 43° |
| 2026-05-06 16:55 | -35.83072 | 147.65151 | 35075 ft | 486 kts | 43° |
| 2026-05-06 16:56 | -35.79034 | 147.71745 | 35044 ft | 485 kts | 43° |
| 2026-05-06 16:56 | -35.74967 | 147.78373 | 35072 ft | 485 kts | 43° |
| 2026-05-06 16:57 | -35.70894 | 147.84987 | 35079 ft | 485 kts | 43° |
| 2026-05-06 16:57 | -35.66827 | 147.91617 | 35087 ft | 485 kts | 43° |
| 2026-05-06 16:58 | -35.62764 | 147.98207 | 35070 ft | 483 kts | 43° |
| 2026-05-06 16:58 | -35.58706 | 148.04781 | 35077 ft | 483 kts | 43° |
| 2026-05-06 16:59 | -35.54634 | 148.11349 | 35081 ft | 483 kts | 43° |
| 2026-05-06 16:59 | -35.50559 | 148.17913 | 35035 ft | 483 kts | 43° |
| 2026-05-06 17:00 | -35.46507 | 148.24436 | 35060 ft | 479 kts | 43° |
| 2026-05-06 17:00 | -35.42484 | 148.30887 | 35078 ft | 479 kts | 43° |
| 2026-05-06 17:01 | -35.38433 | 148.37387 | 35076 ft | 479 kts | 43° |
| 2026-05-06 17:01 | -35.34374 | 148.43873 | 35056 ft | 480 kts | 42° |
| 2026-05-06 17:02 | -35.30291 | 148.50341 | 35052 ft | 479 kts | 43° |
| 2026-05-06 17:02 | -35.26237 | 148.56797 | 35073 ft | 478 kts | 43° |
| 2026-05-06 17:03 | -35.22182 | 148.63251 | 35061 ft | 478 kts | 43° |
| 2026-05-06 17:03 | -35.18138 | 148.69665 | 35064 ft | 480 kts | 43° |
| 2026-05-06 17:04 | -35.14058 | 148.76136 | 35067 ft | 480 kts | 43° |
| 2026-05-06 17:04 | -35.09981 | 148.82594 | 35065 ft | 480 kts | 43° |
| 2026-05-06 17:05 | -35.05904 | 148.89040 | 35039 ft | 480 kts | 43° |
| 2026-05-06 17:05 | -35.01805 | 148.95495 | 35068 ft | 481 kts | 43° |
| 2026-05-06 17:06 | -34.97738 | 149.01890 | 35073 ft | 481 kts | 43° |
| 2026-05-06 17:06 | -34.93648 | 149.08317 | 35098 ft | 477 kts | 43° |
| 2026-05-06 17:07 | -34.89568 | 149.14708 | 35069 ft | 479 kts | 42° |
| 2026-05-06 17:07 | -34.85479 | 149.21113 | 35082 ft | 479 kts | 42° |
| 2026-05-06 17:08 | -34.81377 | 149.27520 | 35082 ft | 479 kts | 42° |
| 2026-05-06 17:08 | -34.77295 | 149.33890 | 34679 ft | 476 kts | 42° |
| 2026-05-06 17:08 | -34.75262 | 149.37060 | 34136 ft | 474 kts | 42° |
| 2026-05-06 17:09 | -34.73405 | 149.40377 | 33563 ft | 488 kts | 51° |
| 2026-05-06 17:09 | -34.71787 | 149.44027 | 33220 ft | 492 kts | 53° |
| 2026-05-06 17:09 | -34.70180 | 149.47762 | 32839 ft | 491 kts | 54° |
| 2026-05-06 17:09 | -34.68627 | 149.51390 | 32202 ft | 489 kts | 54° |
| 2026-05-06 17:10 | -34.67054 | 149.55039 | 31529 ft | 487 kts | 54° |
| 2026-05-06 17:10 | -34.65477 | 149.58666 | 30859 ft | 485 kts | 54° |
| 2026-05-06 17:10 | -34.63897 | 149.62287 | 30211 ft | 482 kts | 54° |
| 2026-05-06 17:10 | -34.62325 | 149.65871 | 29452 ft | 479 kts | 54° |
| 2026-05-06 17:11 | -34.60760 | 149.69419 | 28711 ft | 474 kts | 55° |
| 2026-05-06 17:11 | -34.59213 | 149.72934 | 28061 ft | 468 kts | 55° |
| 2026-05-06 17:11 | -34.57697 | 149.76387 | 27443 ft | 461 kts | 55° |
| 2026-05-06 17:11 | -34.56192 | 149.79805 | 26793 ft | 456 kts | 55° |
| 2026-05-06 17:12 | -34.54702 | 149.83165 | 26171 ft | 451 kts | 55° |
| 2026-05-06 17:12 | -34.53224 | 149.86504 | 25568 ft | 446 kts | 55° |
| 2026-05-06 17:12 | -34.51774 | 149.89794 | 24981 ft | 441 kts | 55° |
| 2026-05-06 17:12 | -34.50328 | 149.93064 | 24392 ft | 437 kts | 55° |
| 2026-05-06 17:13 | -34.48900 | 149.96291 | 23788 ft | 433 kts | 56° |
| 2026-05-06 17:13 | -34.47489 | 149.99506 | 23120 ft | 429 kts | 56° |
| 2026-05-06 17:13 | -34.46097 | 150.02675 | 22497 ft | 424 kts | 56° |
| 2026-05-06 17:13 | -34.44712 | 150.05810 | 21868 ft | 419 kts | 56° |
| 2026-05-06 17:14 | -34.43337 | 150.08909 | 21255 ft | 415 kts | 56° |
| 2026-05-06 17:14 | -34.41992 | 150.11934 | 20704 ft | 410 kts | 56° |
| 2026-05-06 17:14 | -34.40644 | 150.14964 | 20156 ft | 406 kts | 56° |
| 2026-05-06 17:14 | -34.39311 | 150.17958 | 19616 ft | 401 kts | 56° |
| 2026-05-06 17:15 | -34.37999 | 150.20910 | 19130 ft | 395 kts | 56° |
| 2026-05-06 17:15 | -34.36699 | 150.23823 | 18656 ft | 390 kts | 56° |
| 2026-05-06 17:15 | -34.35416 | 150.26695 | 18158 ft | 385 kts | 56° |
| 2026-05-06 17:15 | -34.34149 | 150.29526 | 17633 ft | 380 kts | 56° |
| 2026-05-06 17:16 | -34.32905 | 150.32295 | 17165 ft | 378 kts | 56° |
| 2026-05-06 17:16 | -34.31632 | 150.35126 | 16679 ft | 378 kts | 57° |
| 2026-05-06 17:16 | -34.30393 | 150.37887 | 16226 ft | 379 kts | 57° |
| 2026-05-06 17:16 | -34.29134 | 150.40690 | 15754 ft | 379 kts | 57° |
| 2026-05-06 17:17 | -34.27876 | 150.43498 | 15309 ft | 379 kts | 57° |
| 2026-05-06 17:17 | -34.26625 | 150.46297 | 14869 ft | 379 kts | 57° |
| 2026-05-06 17:17 | -34.25369 | 150.49111 | 14394 ft | 379 kts | 57° |
| 2026-05-06 17:17 | -34.24127 | 150.51891 | 13915 ft | 374 kts | 58° |
| 2026-05-06 17:18 | -34.22895 | 150.54645 | 13406 ft | 368 kts | 57° |
| 2026-05-06 17:18 | -34.21688 | 150.57346 | 12935 ft | 362 kts | 57° |
| 2026-05-06 17:18 | -34.20499 | 150.59996 | 12478 ft | 355 kts | 57° |
| 2026-05-06 17:18 | -34.19330 | 150.62599 | 12015 ft | 350 kts | 58° |
| 2026-05-06 17:19 | -34.18180 | 150.65156 | 11566 ft | 344 kts | 58° |
| 2026-05-06 17:19 | -34.17037 | 150.67696 | 11138 ft | 344 kts | 58° |
| 2026-05-06 17:19 | -34.15900 | 150.70223 | 10755 ft | 340 kts | 58° |
| 2026-05-06 17:19 | -34.14794 | 150.72687 | 10519 ft | 328 kts | 58° |
| 2026-05-06 17:20 | -34.13728 | 150.75060 | 10339 ft | 315 kts | 58° |
| 2026-05-06 17:20 | -34.12710 | 150.77319 | 10096 ft | 306 kts | 58° |
| 2026-05-06 17:20 | -34.11699 | 150.79562 | 9685 ft | 303 kts | 59° |
| 2026-05-06 17:20 | -34.10693 | 150.81787 | 9248 ft | 302 kts | 59° |
| 2026-05-06 17:21 | -34.09684 | 150.84017 | 8858 ft | 303 kts | 59° |
| 2026-05-06 17:21 | -34.08680 | 150.86246 | 8539 ft | 301 kts | 59° |
| 2026-05-06 17:21 | -34.07685 | 150.88457 | 8230 ft | 299 kts | 59° |
| 2026-05-06 17:21 | -34.06698 | 150.90650 | 7924 ft | 297 kts | 59° |
| 2026-05-06 17:22 | -34.05716 | 150.92833 | 7612 ft | 295 kts | 59° |
| 2026-05-06 17:22 | -34.04737 | 150.95004 | 7296 ft | 293 kts | 59° |
| 2026-05-06 17:22 | -34.03779 | 150.97170 | 6998 ft | 292 kts | 63° |
| 2026-05-06 17:22 | -34.03246 | 150.99523 | 6686 ft | 291 kts | 88° |
| 2026-05-06 17:23 | -34.03603 | 151.01882 | 6391 ft | 285 kts | 117° |
| 2026-05-06 17:23 | -34.04717 | 151.03806 | 6107 ft | 277 kts | 136° |
| 2026-05-06 17:23 | -34.06007 | 151.05383 | 5834 ft | 273 kts | 138° |
| 2026-05-06 17:23 | -34.07368 | 151.06983 | 5560 ft | 269 kts | 142° |
| 2026-05-06 17:24 | -34.08952 | 151.08077 | 5290 ft | 258 kts | 167° |
| 2026-05-06 17:24 | -34.10689 | 151.08558 | 5059 ft | 255 kts | 174° |
| 2026-05-06 17:24 | -34.12424 | 151.08957 | 4819 ft | 253 kts | 173° |
| 2026-05-06 17:24 | -34.14155 | 151.09368 | 4555 ft | 252 kts | 173° |
| 2026-05-06 17:25 | -34.15869 | 151.09790 | 4302 ft | 251 kts | 174° |
| 2026-05-06 17:25 | -34.17571 | 151.10218 | 4046 ft | 248 kts | 174° |
| 2026-05-06 17:25 | -34.19261 | 151.10652 | 3815 ft | 248 kts | 173° |
| 2026-05-06 17:25 | -34.20823 | 151.11601 | 3595 ft | 277 kts | 141° |
| 2026-05-06 17:26 | -34.21881 | 151.13575 | 3473 ft | 287 kts | 109° |
| 2026-05-06 17:26 | -34.21999 | 151.15976 | 3348 ft | 289 kts | 77° |
| 2026-05-06 17:26 | -34.21135 | 151.18121 | 3229 ft | 285 kts | 45° |
| 2026-05-06 17:26 | -34.19586 | 151.19554 | 3110 ft | 279 kts | 25° |
| 2026-05-06 17:27 | -34.17872 | 151.20572 | 2986 ft | 267 kts | 19° |
| 2026-05-06 17:27 | -34.16213 | 151.21428 | 2941 ft | 250 kts | 16° |
| 2026-05-06 17:27 | -34.14604 | 151.22092 | 2947 ft | 240 kts | 5° |
| 2026-05-06 17:27 | -34.13050 | 151.22286 | 2950 ft | 209 kts | 350° |
| 2026-05-06 17:28 | -34.11716 | 151.22098 | 2987 ft | 185 kts | 342° |
| 2026-05-06 17:28 | -34.10466 | 151.21733 | 2873 ft | 185 kts | 342° |
| 2026-05-06 17:28 | -34.09241 | 151.21407 | 2649 ft | 184 kts | 341° |
| 2026-05-06 17:28 | -34.07947 | 151.21069 | 2398 ft | 186 kts | 342° |
| 2026-05-06 17:29 | -34.06717 | 151.20749 | 2129 ft | 175 kts | 341° |
| 2026-05-06 17:29 | -34.05581 | 151.20453 | 1893 ft | 157 kts | 341° |
| 2026-05-06 17:29 | -34.04582 | 151.20193 | 1666 ft | 138 kts | 340° |
| 2026-05-06 17:29 | -34.03658 | 151.19950 | 1477 ft | 135 kts | 341° |
| 2026-05-06 17:30 | -34.02740 | 151.19717 | 1326 ft | 136 kts | 341° |
| 2026-05-06 17:30 | -34.01820 | 151.19488 | 1098 ft | 136 kts | 340° |
| 2026-05-06 17:30 | -34.00896 | 151.19240 | 938 ft | 138 kts | 340° |
| 2026-05-06 17:30 | -33.99962 | 151.18980 | 728 ft | 136 kts | 343° |
| 2026-05-06 17:31 | -33.99044 | 151.18759 | 610 ft | 133 kts | 345° |
| 2026-05-06 17:31 | -33.98148 | 151.18515 | 400 ft | 132 kts | 343° |
| 2026-05-06 17:31 | -33.97249 | 151.18285 | 230 ft | 132 kts | 344° |
| 2026-05-06 17:31 | -33.96349 | 151.18048 | 64 ft | 132 kts | 344° |
| 2026-05-06 17:32 | -33.95468 | 151.17831 | 38 ft | 131 kts | 346° |
| 2026-05-06 17:32 | -33.94556 | 151.17545 | 299 ft | 144 kts | 333° |
| 2026-05-06 17:32 | -33.93568 | 151.17093 | 726 ft | 152 kts | 337° |
| 2026-05-06 17:32 | -33.92647 | 151.16772 | 1015 ft | 135 kts | 338° |
| 2026-05-06 17:33 | -33.91689 | 151.16424 | 1207 ft | 153 kts | 335° |
| 2026-05-06 17:33 | -33.90719 | 151.15992 | 1447 ft | 139 kts | 332° |
| 2026-05-06 17:33 | -33.89860 | 151.15556 | 1673 ft | 137 kts | 328° |
| 2026-05-06 17:33 | -33.89008 | 151.15042 | 2030 ft | 136 kts | 325° |
| 2026-05-06 17:34 | -33.88200 | 151.14487 | 2361 ft | 134 kts | 317° |
| 2026-05-06 17:34 | -33.87582 | 151.13632 | 2569 ft | 144 kts | 309° |
| 2026-05-06 17:34 | -33.86921 | 151.12663 | 2895 ft | 157 kts | 291° |
| 2026-05-06 17:34 | -33.86826 | 151.11232 | 3041 ft | 193 kts | 263° |
| 2026-05-06 17:35 | -33.87420 | 151.09650 | 3049 ft | 217 kts | 232° |
| 2026-05-06 17:35 | -33.88663 | 151.08634 | 3072 ft | 222 kts | 202° |
| 2026-05-06 17:35 | -33.90234 | 151.08494 | 3044 ft | 232 kts | 177° |
| 2026-05-06 17:36 | -33.92862 | 151.09206 | 3009 ft | 236 kts | 166° |
| 2026-05-06 17:36 | -33.94413 | 151.09867 | 2998 ft | 235 kts | 165° |
| 2026-05-06 17:36 | -33.95952 | 151.10515 | 2995 ft | 235 kts | 168° |
| 2026-05-06 17:36 | -33.97531 | 151.10986 | 2997 ft | 232 kts | 172° |
| 2026-05-06 17:37 | -33.99090 | 151.11403 | 2862 ft | 226 kts | 173° |
| 2026-05-06 17:37 | -34.00589 | 151.11806 | 2685 ft | 215 kts | 173° |
| 2026-05-06 17:37 | -34.01981 | 151.12188 | 2604 ft | 195 kts | 173° |
| 2026-05-06 17:37 | -34.03251 | 151.12551 | 2499 ft | 180 kts | 173° |
| 2026-05-06 17:38 | -34.04402 | 151.12904 | 2416 ft | 165 kts | 172° |
| 2026-05-06 17:38 | -34.05478 | 151.13244 | 2198 ft | 157 kts | 173° |
| 2026-05-06 17:38 | -34.06526 | 151.13666 | 1924 ft | 161 kts | 165° |
| 2026-05-06 17:38 | -34.07389 | 151.14552 | 1859 ft | 173 kts | 123° |
| 2026-05-06 17:39 | -34.07612 | 151.15977 | 1870 ft | 177 kts | 81° |
| 2026-05-06 17:39 | -34.07309 | 151.17411 | 1917 ft | 176 kts | 72° |
| 2026-05-06 17:39 | -34.06979 | 151.18815 | 1944 ft | 172 kts | 68° |
| 2026-05-06 17:39 | -34.06359 | 151.20040 | 2040 ft | 170 kts | 38° |
| 2026-05-06 17:40 | -34.05376 | 151.20470 | 1882 ft | 142 kts | 352° |
| 2026-05-06 17:40 | -34.04451 | 151.20251 | 1607 ft | 133 kts | 335° |
| 2026-05-06 17:40 | -34.03561 | 151.19928 | 1517 ft | 134 kts | 340° |
| 2026-05-06 17:40 | -34.02635 | 151.19733 | 1326 ft | 135 kts | 343° |
| 2026-05-06 17:41 | -34.01724 | 151.19494 | 1090 ft | 133 kts | 337° |
| 2026-05-06 17:41 | -34.00810 | 151.19211 | 967 ft | 136 kts | 342° |
| 2026-05-06 17:41 | -33.99892 | 151.19005 | 797 ft | 133 kts | 340° |
| 2026-05-06 17:41 | -33.99005 | 151.18721 | 616 ft | 131 kts | 343° |
| 2026-05-06 17:42 | -33.98077 | 151.18506 | 413 ft | 135 kts | 344° |
| 2026-05-06 17:42 | -33.97172 | 151.18263 | 228 ft | 136 kts | 342° |
| 2026-05-06 17:42 | -33.96256 | 151.18025 | 45 ft | 135 kts | 343° |
| 2026-05-06 17:42 | -33.95402 | 151.17792 | 27 ft | 98 kts | 351° |
| 2026-05-06 17:43 | -33.94918 | 151.17679 | 28 ft | 69 kts | 350° |
| 2026-05-06 17:43 | -33.94471 | 151.17556 | 30 ft | 66 kts | 344° |
| 2026-05-06 17:43 | -33.94196 | 151.17497 | 29 ft | 0 kts | 332° |
| 2026-05-06 17:43 | -33.94193 | 151.17496 | 29 ft | 0 kts | 333° |